Time;durP1;ratioP1;P1;durP2;ratioP2;P2;SDS_P1;SDS_P2;PMS_P1;PMS_P2;Temp;Humidity;BMP_temperature;BMP_pressure;BME280_temperature;BME280_humidity;BME280_pressure;Samples;Min_cycle;Max_cycle;Signal;HPM_P1;HPM_P2
2022/01/09 00:00:18;;;;;;;13.23;7.38;;;;;;;-2.89;100.00;99099.22;5151161;27;20051;-49
2022/01/09 00:02:45;;;;;;;21.33;8.60;;;;;;;-2.88;100.00;99094.63;5150973;27;20050;-50
2022/01/09 00:05:13;;;;;;;21.65;9.13;;;;;;;-3.08;100.00;99099.03;5152762;27;20051;-52
2022/01/09 00:07:39;;;;;;;19.13;8.75;;;;;;;-2.98;100.00;99094.69;5154769;27;20431;-49
2022/01/09 00:10:07;;;;;;;17.67;8.77;;;;;;;-3.06;100.00;99090.72;5154717;27;20046;-51
2022/01/09 00:12:34;;;;;;;23.98;9.55;;;;;;;-3.04;100.00;99088.56;5154546;27;20047;-49
2022/01/09 00:15:01;;;;;;;23.95;9.05;;;;;;;-2.97;100.00;99081.00;5154075;27;20050;-49
2022/01/09 00:17:27;;;;;;;18.83;8.75;;;;;;;-3.03;100.00;99081.31;5154351;27;20055;-51
2022/01/09 00:19:54;;;;;;;20.00;9.48;;;;;;;-3.00;100.00;99078.06;5154574;27;20050;-48
2022/01/09 00:22:27;;;;;;;21.73;9.90;;;;;;;-3.01;100.00;99077.28;5154661;27;20046;-50
2022/01/09 00:24:54;;;;;;;20.08;9.05;;;;;;;-2.96;100.00;99081.81;5154460;27;20099;-53
2022/01/09 00:27:20;;;;;;;21.63;10.13;;;;;;;-2.93;100.00;99082.06;5154509;27;20051;-52
2022/01/09 00:29:46;;;;;;;21.60;10.40;;;;;;;-2.88;100.00;99081.22;5154457;27;20051;-54
2022/01/09 00:32:12;;;;;;;19.73;8.85;;;;;;;-2.84;100.00;99082.25;5154400;27;20460;-53
2022/01/09 00:34:39;;;;;;;19.27;8.52;;;;;;;-2.80;100.00;99072.56;5154371;27;20409;-54
2022/01/09 00:37:06;;;;;;;16.08;8.77;;;;;;;-2.73;100.00;99065.03;5154184;27;20047;-54
2022/01/09 00:39:32;;;;;;;17.70;8.65;;;;;;;-2.63;100.00;99069.53;5154071;27;20046;-52
2022/01/09 00:41:58;;;;;;;20.75;9.38;;;;;;;-2.63;100.00;99064.16;5154285;27;20133;-51
2022/01/09 00:44:24;;;;;;;20.38;9.65;;;;;;;-2.70;100.00;99067.16;5153867;27;20053;-54
2022/01/09 00:46:51;;;;;;;23.50;10.15;;;;;;;-2.80;100.00;99061.03;5153985;27;20557;-54
2022/01/09 00:49:17;;;;;;;17.98;7.75;;;;;;;-2.87;100.00;99061.34;5153878;27;20054;-51
2022/01/09 00:51:43;;;;;;;16.92;8.75;;;;;;;-2.90;100.00;99053.88;5153897;27;20141;-52
2022/01/09 00:54:10;;;;;;;17.92;7.75;;;;;;;-2.79;100.00;99050.06;5153833;27;20046;-49
2022/01/09 00:56:36;;;;;;;15.98;7.93;;;;;;;-2.72;100.00;99052.41;5153609;27;20517;-50
2022/01/09 00:59:03;;;;;;;18.02;8.73;;;;;;;-2.71;100.00;99046.75;5153808;27;20141;-50
2022/01/09 01:01:29;;;;;;;19.67;10.60;;;;;;;-2.74;100.00;99043.84;5153898;27;20047;-51
2022/01/09 01:03:55;;;;;;;21.92;10.52;;;;;;;-2.72;100.00;99036.31;5153836;27;20051;-49
2022/01/09 01:06:21;;;;;;;23.42;10.02;;;;;;;-2.77;100.00;99042.50;5154038;27;20046;-49
2022/01/09 01:08:48;;;;;;;22.55;10.07;;;;;;;-2.74;100.00;99031.22;5153990;27;20050;-52
2022/01/09 01:11:15;;;;;;;18.85;9.82;;;;;;;-2.70;100.00;99031.44;5154040;27;20463;-48
2022/01/09 01:13:41;;;;;;;19.77;9.73;;;;;;;-2.72;100.00;99022.91;5154003;27;20046;-49
2022/01/09 01:16:07;;;;;;;19.17;9.05;;;;;;;-2.79;100.00;99025.09;5152231;27;20054;-50
2022/01/09 01:18:33;;;;;;;20.20;9.35;;;;;;;-2.79;100.00;99017.06;5153522;27;20485;-54
2022/01/09 01:21:00;;;;;;;16.75;8.50;;;;;;;-2.81;100.00;99014.63;5153757;27;20523;-49
2022/01/09 01:23:27;;;;;;;16.90;8.88;;;;;;;-2.77;100.00;99010.31;5153388;27;20057;-53
2022/01/09 01:25:53;;;;;;;13.98;8.27;;;;;;;-2.73;100.00;99014.06;5153247;27;20142;-50
2022/01/09 01:28:20;;;;;;;25.75;10.15;;;;;;;-2.77;100.00;99004.94;5153414;27;20047;-49
2022/01/09 01:30:46;;;;;;;16.00;7.57;;;;;;;-2.75;100.00;99005.47;5153373;27;20634;-53
2022/01/09 01:33:13;;;;;;;17.75;9.13;;;;;;;-2.72;100.00;99014.84;5153124;27;20122;-50
2022/01/09 01:35:39;;;;;;;16.70;7.85;;;;;;;-2.64;100.00;99009.66;5153385;27;20061;-50
2022/01/09 01:38:05;;;;;;;16.23;8.45;;;;;;;-2.56;100.00;98997.53;5153165;27;20057;-52
2022/01/09 01:40:31;;;;;;;13.15;8.07;;;;;;;-2.68;100.00;99005.94;5153290;27;20047;-52
2022/01/09 01:42:58;;;;;;;18.17;8.90;;;;;;;-2.58;100.00;99004.25;5153057;27;20050;-49
2022/01/09 01:45:25;;;;;;;18.20;8.95;;;;;;;-2.58;100.00;98993.53;5153024;27;20053;-50
2022/01/09 01:47:51;;;;;;;22.13;9.52;;;;;;;-2.54;100.00;98991.88;5152903;27;20050;-48
2022/01/09 01:50:19;;;;;;;16.73;9.80;;;;;;;-2.52;100.00;98993.19;5152956;27;20592;-50
2022/01/09 01:52:48;;;;;;;21.90;10.38;;;;;;;-2.50;100.00;98991.03;5153298;27;20134;-49
2022/01/09 01:55:16;;;;;;;18.13;10.73;;;;;;;-2.50;100.00;98999.09;5153163;27;20425;-49
2022/01/09 01:57:44;;;;;;;22.13;10.60;;;;;;;-2.44;100.00;98995.25;5152960;27;20050;-49
2022/01/09 02:00:13;;;;;;;20.00;9.88;;;;;;;-2.52;100.00;98993.19;5152883;27;20536;-49
2022/01/09 02:02:41;;;;;;;22.08;10.07;;;;;;;-2.48;100.00;98988.84;5153129;27;20057;-49
2022/01/09 02:05:09;;;;;;;23.02;10.25;;;;;;;-2.49;100.00;98987.25;5152554;27;20107;-50
2022/01/09 02:07:38;;;;;;;18.35;9.52;;;;;;;-2.38;100.00;98983.38;5153184;27;20046;-48
2022/01/09 02:10:08;;;;;;;20.30;9.70;;;;;;;-2.34;100.00;98988.19;5152685;27;20053;-48
2022/01/09 02:12:36;;;;;;;20.60;10.63;;;;;;;-2.32;100.00;98976.09;5152632;27;20086;-49
2022/01/09 02:15:20;;;;;;;20.90;9.52;;;;;;;-2.38;100.00;98971.84;5152402;27;20526;-49
2022/01/09 02:17:47;;;;;;;21.73;10.65;;;;;;;-2.29;100.00;98980.88;5152513;27;20111;-49
2022/01/09 02:20:15;;;;;;;24.48;10.27;;;;;;;-2.33;100.00;98969.13;5152722;27;20054;-50
2022/01/09 02:22:41;;;;;;;20.35;10.60;;;;;;;-2.36;100.00;98972.38;5152511;27;20051;-49
2022/01/09 02:25:08;;;;;;;20.60;10.77;;;;;;;-2.35;100.00;98970.50;5152366;27;20059;-50
2022/01/09 02:27:34;;;;;;;23.60;10.60;;;;;;;-2.33;100.00;98965.63;5152077;27;20053;-49
2022/01/09 02:30:00;;;;;;;19.52;10.63;;;;;;;-2.26;100.00;98963.41;5152649;27;20422;-49
2022/01/09 02:32:27;;;;;;;20.33;10.05;;;;;;;-2.26;100.00;98958.84;5152654;27;20388;-53
2022/01/09 02:34:53;;;;;;;20.58;9.75;;;;;;;-2.23;100.00;98963.66;5152758;27;20114;-49
2022/01/09 02:37:21;;;;;;;21.17;10.65;;;;;;;-2.17;100.00;98957.09;5152753;27;20086;-49
2022/01/09 02:39:48;;;;;;;20.63;10.65;;;;;;;-2.19;100.00;98953.94;5152534;27;20143;-51
2022/01/09 02:42:19;;;;;;;20.20;11.05;;;;;;;-2.16;100.00;98947.19;5152743;27;20046;-49
2022/01/09 02:44:45;;;;;;;19.35;10.43;;;;;;;-2.06;100.00;98946.28;5152246;27;20131;-52
2022/01/09 02:47:11;;;;;;;22.55;10.82;;;;;;;-2.04;100.00;98938.72;5152216;27;21108;-50
2022/01/09 02:49:38;;;;;;;24.85;11.68;;;;;;;-2.03;100.00;98941.13;5152202;27;20050;-50
2022/01/09 02:52:23;;;;;;;31.60;11.05;;;;;;;-1.98;100.00;98935.66;5151884;27;20138;-50
2022/01/09 02:55:11;;;;;;;19.23;9.73;;;;;;;-1.94;100.00;98934.00;5152237;27;20467;-51
2022/01/09 02:57:38;;;;;;;23.92;10.30;;;;;;;-2.05;100.00;98929.84;5152102;27;20610;-49
2022/01/09 03:00:06;;;;;;;19.38;9.85;;;;;;;-1.98;100.00;98921.44;5152133;27;20049;-52
2022/01/09 03:02:32;;;;;;;19.27;9.63;;;;;;;-1.97;100.00;98926.50;5152011;27;20046;-52
2022/01/09 03:04:59;;;;;;;17.10;9.10;;;;;;;-1.97;100.00;98918.47;5151830;27;20043;-50
2022/01/09 03:07:25;;;;;;;18.17;9.30;;;;;;;-1.95;100.00;98920.88;5152097;27;20043;-52
2022/01/09 03:09:52;;;;;;;15.80;8.95;;;;;;;-1.92;100.00;98920.31;5151727;27;20187;-49
2022/01/09 03:12:18;;;;;;;16.15;9.07;;;;;;;-1.91;100.00;98920.00;5151860;27;20459;-53
2022/01/09 03:14:46;;;;;;;14.98;8.05;;;;;;;-1.94;100.00;98919.78;5151822;27;20501;-51
2022/01/09 03:17:12;;;;;;;15.82;8.77;;;;;;;-1.92;100.00;98926.47;5151436;27;20078;-53
2022/01/09 03:19:38;;;;;;;21.52;8.60;;;;;;;-1.95;100.00;98926.25;5151620;27;20142;-53
2022/01/09 03:22:05;;;;;;;18.00;8.60;;;;;;;-1.94;100.00;98922.47;5151791;27;20053;-51
2022/01/09 03:24:31;;;;;;;15.55;7.80;;;;;;;-2.04;100.00;98923.38;5151466;27;20053;-51
2022/01/09 03:26:58;;;;;;;17.17;7.95;;;;;;;-2.02;100.00;98921.22;5151716;27;20118;-50
2022/01/09 03:29:25;;;;;;;15.80;8.60;;;;;;;-1.98;100.00;98921.44;5151433;27;20053;-49
2022/01/09 03:31:51;;;;;;;13.77;8.20;;;;;;;-1.97;100.00;98918.47;5151412;27;20051;-50
2022/01/09 03:34:17;;;;;;;14.48;8.40;;;;;;;-1.89;100.00;98919.72;5151357;27;20054;-50
2022/01/09 03:36:43;;;;;;;15.48;8.98;;;;;;;-1.83;100.00;98928.50;5151278;27;20192;-49
2022/01/09 03:39:10;;;;;;;12.52;7.78;;;;;;;-1.75;100.00;98935.94;5150733;27;20457;-50
2022/01/09 03:41:36;;;;;;;14.57;8.25;;;;;;;-1.76;100.00;98929.75;5151500;27;20054;-49
2022/01/09 03:44:04;;;;;;;13.88;8.25;;;;;;;-1.73;100.00;98925.69;5151363;27;20480;-50
2022/01/09 03:46:30;;;;;;;14.77;8.52;;;;;;;-1.73;100.00;98923.03;5151208;27;20070;-49
2022/01/09 03:48:56;;;;;;;19.65;8.43;;;;;;;-1.72;100.00;98921.91;5151466;27;20054;-52
2022/01/09 03:51:25;;;;;;;12.85;7.90;;;;;;;-1.69;100.00;98919.44;5151164;27;20049;-49
2022/01/09 03:53:52;;;;;;;16.90;7.95;;;;;;;-1.68;100.00;98914.88;5151346;27;20053;-49
2022/01/09 03:56:18;;;;;;;19.45;10.38;;;;;;;-1.75;100.00;98915.22;5150942;27;20425;-50
2022/01/09 03:58:45;;;;;;;16.08;9.13;;;;;;;-1.71;100.00;98912.75;5151278;27;20078;-50
2022/01/09 04:01:11;;;;;;;15.73;8.40;;;;;;;-1.77;100.00;98911.22;5150994;27;20087;-49
2022/01/09 04:03:38;;;;;;;13.68;7.40;;;;;;;-1.78;100.00;98904.25;5151061;27;20102;-49
2022/01/09 04:06:04;;;;;;;14.25;7.75;;;;;;;-1.79;100.00;98905.34;5151173;27;20452;-50
2022/01/09 04:08:31;;;;;;;14.13;8.10;;;;;;;-1.81;100.00;98896.78;5151097;27;20046;-50
2022/01/09 04:10:57;;;;;;;16.23;8.73;;;;;;;-1.86;100.00;98904.91;5151019;27;20047;-48
2022/01/09 04:13:24;;;;;;;14.38;8.57;;;;;;;-1.81;100.00;98905.63;5150956;27;20062;-48
2022/01/09 04:15:50;;;;;;;17.23;8.95;;;;;;;-1.77;100.00;98909.34;5150571;27;20047;-49
2022/01/09 04:18:19;;;;;;;16.83;9.05;;;;;;;-1.77;100.00;98909.34;5150518;27;20138;-50
2022/01/09 04:20:45;;;;;;;18.33;8.48;;;;;;;-1.76;100.00;98902.88;5151075;27;20130;-50
2022/01/09 04:23:12;;;;;;;13.30;8.48;;;;;;;-1.75;100.00;98904.47;5150731;27;20051;-49
2022/01/09 04:25:39;;;;;;;14.30;7.63;;;;;;;-1.76;100.00;98902.88;5150810;27;20501;-49
2022/01/09 04:28:05;;;;;;;15.63;8.60;;;;;;;-1.81;100.00;98905.63;5150519;27;20047;-51
2022/01/09 04:30:31;;;;;;;15.15;8.18;;;;;;;-1.73;100.00;98909.59;5150663;27;20053;-53
2022/01/09 04:32:58;;;;;;;16.25;8.50;;;;;;;-1.69;100.00;98914.06;5150866;27;20043;-51
2022/01/09 04:35:25;;;;;;;16.80;8.13;;;;;;;-1.76;100.00;98912.84;5150628;27;20046;-50
2022/01/09 04:37:53;;;;;;;15.65;8.80;;;;;;;-1.74;100.00;98916.03;5150756;27;20051;-50
2022/01/09 04:40:20;;;;;;;13.63;7.40;;;;;;;-1.73;100.00;98915.75;5150442;27;20095;-52
2022/01/09 04:42:50;;;;;;;13.65;7.65;;;;;;;-1.69;100.00;98913.28;5150750;27;20129;-53
2022/01/09 04:45:17;;;;;;;11.80;7.60;;;;;;;-1.68;100.00;98920.25;5150637;27;20082;-53
2022/01/09 04:47:46;;;;;;;12.80;7.55;;;;;;;-1.70;100.00;98915.16;5150520;27;20050;-50
2022/01/09 04:50:20;;;;;;;13.43;7.90;;;;;;;-1.65;100.00;98914.28;5150732;27;20494;-53
2022/01/09 04:52:47;;;;;;;14.63;8.02;;;;;;;-1.67;100.00;98911.91;5154076;27;20058;-51
2022/01/09 04:55:13;;;;;;;14.30;7.95;;;;;;;-1.78;100.00;98910.44;5153952;27;20051;-52
2022/01/09 04:57:40;;;;;;;15.43;7.95;;;;;;;-1.72;100.00;98911.97;5154260;27;20080;-52
2022/01/09 05:00:08;;;;;;;13.88;7.70;;;;;;;-1.67;100.00;98914.59;5153916;27;20684;-49
2022/01/09 05:02:34;;;;;;;12.55;6.72;;;;;;;-1.63;100.00;98912.13;5154063;27;20498;-52
2022/01/09 05:05:01;;;;;;;11.60;6.78;;;;;;;-1.68;100.00;98917.56;5153777;27;20056;-49
2022/01/09 05:07:27;;;;;;;13.43;7.05;;;;;;;-1.69;100.00;98914.06;5153829;27;20519;-50
2022/01/09 05:09:54;;;;;;;9.65;6.40;;;;;;;-1.71;100.00;98915.44;5153639;27;20095;-53
2022/01/09 05:12:21;;;;;;;11.70;6.65;;;;;;;-1.76;100.00;98913.63;5153757;27;20051;-51
2022/01/09 05:14:47;;;;;;;13.13;6.63;;;;;;;-1.69;100.00;98913.28;5153860;27;20086;-50
2022/01/09 05:17:13;;;;;;;10.18;6.47;;;;;;;-1.71;100.00;98912.75;5153002;27;20047;-49
2022/01/09 05:19:40;;;;;;;22.73;10.32;;;;;;;-1.72;100.00;98903.91;5153723;27;20466;-50
2022/01/09 05:22:08;;;;;;;12.98;6.68;;;;;;;-1.73;100.00;98902.31;5153377;27;20079;-51
2022/01/09 05:24:34;;;;;;;14.13;7.57;;;;;;;-1.73;100.00;98907.69;5153397;27;20057;-49
2022/01/09 05:27:01;;;;;;;12.98;7.32;;;;;;;-1.69;100.00;98905.22;5153514;27;20069;-49
2022/01/09 05:29:28;;;;;;;9.65;6.20;;;;;;;-1.69;100.00;98907.91;5153401;27;20095;-50
2022/01/09 05:31:54;;;;;;;12.15;7.35;;;;;;;-1.66;100.00;98907.31;5153485;27;20533;-51
2022/01/09 05:34:20;;;;;;;13.52;6.97;;;;;;;-1.69;100.00;98899.84;5153247;27;20046;-50
2022/01/09 05:36:47;;;;;;;11.80;6.47;;;;;;;-1.71;100.00;98899.31;5153578;27;20137;-52
2022/01/09 05:39:13;;;;;;;14.02;6.13;;;;;;;-1.78;100.00;98904.25;5153125;27;20043;-49
2022/01/09 05:41:42;;;;;;;11.65;5.90;;;;;;;-1.75;100.00;98901.00;5153378;27;20042;-49
2022/01/09 05:44:09;;;;;;;12.15;6.63;;;;;;;-1.71;100.00;98910.06;5153155;27;20129;-51
2022/01/09 05:46:36;;;;;;;9.43;5.85;;;;;;;-1.71;100.00;98905.50;5153108;27;20086;-52
2022/01/09 05:49:02;;;;;;;9.15;5.68;;;;;;;-1.70;100.00;98917.03;5153000;27;20510;-53
2022/01/09 05:51:28;;;;;;;9.50;5.70;;;;;;;-1.73;100.00;98913.06;5152908;27;20088;-50
2022/01/09 05:53:54;;;;;;;14.07;6.13;;;;;;;-1.75;100.00;98917.13;5153154;27;20065;-50
2022/01/09 05:56:21;;;;;;;10.90;5.78;;;;;;;-1.64;100.00;98915.09;5153151;27;20050;-52
2022/01/09 05:58:47;;;;;;;9.38;5.97;;;;;;;-1.62;100.00;98908.34;5152941;27;20187;-49
2022/01/09 06:01:14;;;;;;;9.25;5.25;;;;;;;-1.62;100.00;98908.34;5152990;27;20104;-52
2022/01/09 06:03:40;;;;;;;9.30;5.30;;;;;;;-1.64;100.00;98905.13;5152340;27;20051;-52
2022/01/09 06:06:07;;;;;;;9.77;6.00;;;;;;;-1.78;100.00;98910.44;5152707;27;20428;-50
2022/01/09 06:08:33;;;;;;;12.27;6.13;;;;;;;-1.71;100.00;98918.13;5153167;27;20119;-51
2022/01/09 06:10:59;;;;;;;22.98;6.60;;;;;;;-1.70;100.00;98922.41;5152652;27;20064;-51
2022/01/09 06:13:25;;;;;;;12.80;6.15;;;;;;;-1.63;100.00;98917.50;5152819;27;20265;-49
2022/01/09 06:15:52;;;;;;;11.68;6.25;;;;;;;-1.64;100.00;98925.84;5152186;27;20050;-50
2022/01/09 06:18:20;;;;;;;14.20;6.07;;;;;;;-1.67;100.00;98911.91;5152640;27;20050;-51
2022/01/09 06:20:46;;;;;;;12.05;6.80;;;;;;;-1.65;100.00;98916.97;5152375;27;20080;-49
2022/01/09 06:23:12;;;;;;;13.40;6.13;;;;;;;-1.72;100.00;98914.66;5152813;27;20046;-49
2022/01/09 06:25:39;;;;;;;16.05;7.28;;;;;;;-1.69;100.00;98921.34;5152301;27;20050;-50
2022/01/09 06:28:05;;;;;;;11.75;6.22;;;;;;;-1.66;100.00;98924.25;5152750;27;20050;-52
2022/01/09 06:30:31;;;;;;;15.27;7.03;;;;;;;-1.64;100.00;98917.78;5152673;27;20047;-50
2022/01/09 06:32:57;;;;;;;14.30;6.93;;;;;;;-1.70;100.00;98915.16;5152492;27;20417;-51
2022/01/09 06:35:25;;;;;;;14.63;7.32;;;;;;;-1.70;100.00;98917.88;5152405;27;20051;-52
2022/01/09 06:37:51;;;;;;;12.35;6.38;;;;;;;-1.61;100.00;98925.25;5152114;27;20090;-53
2022/01/09 06:40:18;;;;;;;13.70;6.75;;;;;;;-1.68;100.00;98931.78;5152503;27;20043;-53
2022/01/09 06:42:45;;;;;;;18.67;8.60;;;;;;;-1.63;100.00;98930.13;5152096;27;20054;-49
2022/01/09 06:45:12;;;;;;;15.57;7.85;;;;;;;-1.63;100.00;98924.75;5152110;27;20112;-53
2022/01/09 06:47:39;;;;;;;12.70;6.93;;;;;;;-1.51;100.00;98933.19;5152008;27;20042;-51
2022/01/09 06:50:06;;;;;;;17.90;7.80;;;;;;;-1.48;100.00;98922.63;5152160;27;20551;-50
2022/01/09 06:52:33;;;;;;;13.18;6.90;;;;;;;-1.43;100.00;98932.53;5152305;27;20050;-53
2022/01/09 06:55:00;;;;;;;17.35;7.25;;;;;;;-1.38;100.00;98928.97;5152125;27;20513;-53
2022/01/09 06:57:26;;;;;;;12.88;6.55;;;;;;;-1.38;100.00;98921.69;5152361;27;20115;-53
2022/01/09 06:59:53;;;;;;;17.45;7.57;;;;;;;-1.44;100.00;98926.34;5151880;27;20565;-49
2022/01/09 07:02:19;;;;;;;14.50;7.20;;;;;;;-1.40;100.00;98926.56;5152119;27;20439;-49
2022/01/09 07:04:45;;;;;;;13.85;6.95;;;;;;;-1.41;100.00;98927.66;5151935;27;20051;-51
2022/01/09 07:07:11;;;;;;;13.65;7.82;;;;;;;-1.43;100.00;98917.19;5152345;27;20374;-53
2022/01/09 07:09:39;;;;;;;16.55;8.45;;;;;;;-1.44;100.00;98922.84;5152253;27;20046;-50
2022/01/09 07:12:07;;;;;;;14.02;8.38;;;;;;;-1.42;100.00;98921.47;5152217;27;20459;-49
2022/01/09 07:14:33;;;;;;;21.27;9.82;;;;;;;-1.36;100.00;98927.59;5150786;27;20047;-51
2022/01/09 07:16:59;;;;;;;18.75;8.95;;;;;;;-1.39;100.00;98914.72;5151214;27;20054;-50
2022/01/09 07:19:25;;;;;;;19.08;8.70;;;;;;;-1.35;100.00;98917.63;5151987;27;20054;-51
2022/01/09 07:21:51;;;;;;;16.00;8.13;;;;;;;-1.35;100.00;98907.66;5151564;27;20145;-50
2022/01/09 07:24:18;;;;;;;20.58;9.65;;;;;;;-1.37;100.00;98911.72;5151681;27;20046;-50
2022/01/09 07:26:45;;;;;;;16.92;8.95;;;;;;;-1.38;100.00;98908.25;5151572;27;20051;-49
2022/01/09 07:29:11;;;;;;;25.13;9.52;;;;;;;-1.38;100.00;98918.22;5151622;27;20042;-50
2022/01/09 07:31:37;;;;;;;16.27;8.27;;;;;;;-1.39;100.00;98913.94;5151354;27;20093;-49
2022/01/09 07:34:04;;;;;;;15.40;8.15;;;;;;;-1.44;100.00;98915.59;5151780;27;20043;-50
2022/01/09 07:36:30;;;;;;;19.08;8.50;;;;;;;-1.39;100.00;98914.72;5151457;27;20601;-49
2022/01/09 07:38:56;;;;;;;17.15;8.15;;;;;;;-1.31;100.00;98913.25;5151528;27;20057;-53
2022/01/09 07:41:23;;;;;;;13.20;7.63;;;;;;;-1.37;100.00;98906.34;5151155;27;20047;-49
2022/01/09 07:43:50;;;;;;;17.40;7.97;;;;;;;-1.31;100.00;98913.25;5151318;27;20054;-50
2022/01/09 07:46:16;;;;;;;15.27;8.05;;;;;;;-1.34;100.00;98905.78;5151067;27;20053;-50
2022/01/09 07:48:43;;;;;;;25.13;9.07;;;;;;;-1.42;100.00;98904.56;5151473;27;20235;-50
2022/01/09 07:51:09;;;;;;;18.45;8.55;;;;;;;-1.48;100.00;98903.81;5151533;27;20103;-49
2022/01/09 07:53:35;;;;;;;20.65;8.02;;;;;;;-1.38;100.00;98894.00;5151149;27;20055;-49
2022/01/09 07:56:01;;;;;;;19.20;9.43;;;;;;;-1.39;100.00;98897.78;5151150;27;20055;-50
2022/01/09 07:58:28;;;;;;;23.77;10.60;;;;;;;-1.39;100.00;98898.59;5151031;27;20051;-50
2022/01/09 08:00:55;;;;;;;21.58;9.68;;;;;;;-1.38;100.00;98894.00;5151375;27;20053;-50
2022/01/09 08:03:21;;;;;;;20.40;8.90;;;;;;;-1.42;100.00;98888.41;5150900;27;20080;-53
2022/01/09 08:05:47;;;;;;;19.70;8.43;;;;;;;-1.42;100.00;98883.03;5151024;27;20050;-53
2022/01/09 08:08:13;;;;;;;19.52;9.30;;;;;;;-1.40;100.00;98888.13;5150940;27;20046;-52
2022/01/09 08:10:40;;;;;;;19.08;8.50;;;;;;;-1.46;100.00;98887.41;5150867;27;20046;-51
2022/01/09 08:13:06;;;;;;;17.98;8.25;;;;;;;-1.46;100.00;98884.72;5150860;27;20055;-54
2022/01/09 08:15:32;;;;;;;16.90;8.25;;;;;;;-1.45;100.00;98876.34;5151266;27;20050;-50
2022/01/09 08:17:59;;;;;;;19.42;8.25;;;;;;;-1.32;100.00;98868.63;5150480;27;20103;-51
2022/01/09 08:20:26;;;;;;;21.27;8.70;;;;;;;-1.30;100.00;98861.06;5150762;27;20138;-52
2022/01/09 08:22:52;;;;;;;24.42;8.80;;;;;;;-1.29;100.00;98868.84;5150869;27;20047;-53
2022/01/09 08:25:19;;;;;;;19.88;8.75;;;;;;;-1.31;100.00;98865.63;5151004;27;20089;-54
2022/01/09 08:27:46;;;;;;;23.63;9.73;;;;;;;-1.40;100.00;98855.84;5154562;27;20141;-54
2022/01/09 08:30:14;;;;;;;22.02;8.98;;;;;;;-1.40;100.00;98858.53;5154177;27;20042;-53
2022/01/09 08:32:41;;;;;;;19.50;8.98;;;;;;;-1.30;100.00;98855.69;5154395;27;20058;-53
2022/01/09 08:35:09;;;;;;;20.58;9.38;;;;;;;-1.31;100.00;98862.16;5154200;27;20516;-53
2022/01/09 08:37:36;;;;;;;19.00;8.98;;;;;;;-1.34;100.00;98860.06;5154376;27;20074;-51
2022/01/09 08:40:03;;;;;;;18.15;8.00;;;;;;;-1.27;100.00;98857.78;5154002;27;20051;-51
2022/01/09 08:42:29;;;;;;;22.48;9.73;;;;;;;-1.26;100.00;98856.72;5153969;27;20053;-50
2022/01/09 08:44:56;;;;;;;22.58;9.00;;;;;;;-1.26;100.00;98854.81;5154265;27;20051;-53
2022/01/09 08:47:24;;;;;;;20.58;9.40;;;;;;;-1.19;100.00;98854.44;5153878;27;20130;-54
2022/01/09 08:49:51;;;;;;;21.95;8.95;;;;;;;-1.10;100.00;98855.38;5154181;27;20497;-53
2022/01/09 08:52:18;;;;;;;17.08;9.27;;;;;;;-1.05;100.00;98857.16;5153817;27;20417;-50
2022/01/09 08:54:44;;;;;;;21.73;8.32;;;;;;;-1.03;100.00;98858.47;5154083;27;20051;-51
2022/01/09 08:57:10;;;;;;;20.38;9.45;;;;;;;-1.17;100.00;98859.50;5153777;27;20143;-50
2022/01/09 08:59:37;;;;;;;20.10;10.00;;;;;;;-1.09;100.00;98854.25;5153982;27;20467;-50
2022/01/09 09:02:04;;;;;;;22.65;9.90;;;;;;;-1.03;100.00;98865.75;5153828;27;20047;-54
2022/01/09 09:04:30;;;;;;;17.63;8.52;;;;;;;-1.06;100.00;98863.63;5153995;27;20064;-51
2022/01/09 09:06:56;;;;;;;20.45;9.50;;;;;;;-1.05;100.00;98857.94;5153504;27;20099;-54
2022/01/09 09:09:23;;;;;;;19.00;9.00;;;;;;;-0.98;100.00;98862.94;5153534;27;20072;-50
2022/01/09 09:11:50;;;;;;;18.63;8.88;;;;;;;-0.98;100.00;98869.13;5153645;27;20529;-50
2022/01/09 09:14:17;;;;;;;17.10;8.80;;;;;;;-0.92;100.00;98860.97;5153517;27;20047;-53
2022/01/09 09:16:43;;;;;;;18.50;9.35;;;;;;;-0.88;100.00;98867.34;5153296;27;20082;-49
2022/01/09 09:19:10;;;;;;;17.17;8.85;;;;;;;-0.90;100.00;98853.38;5153525;27;20501;-51
2022/01/09 09:21:36;;;;;;;19.45;10.32;;;;;;;-1.01;100.00;98858.94;5153980;27;20057;-50
2022/01/09 09:24:02;;;;;;;19.08;9.07;;;;;;;-1.09;100.00;98851.56;5153652;27;20054;-52
2022/01/09 09:26:29;;;;;;;21.83;9.82;;;;;;;-1.05;100.00;98851.78;5153838;27;20051;-50
2022/01/09 09:28:56;;;;;;;18.10;9.48;;;;;;;-1.07;100.00;98830.53;5153658;27;20050;-49
2022/01/09 09:31:22;;;;;;;18.02;9.05;;;;;;;-1.16;100.00;98826.16;5153560;27;20090;-50
2022/01/09 09:33:48;;;;;;;17.77;8.65;;;;;;;-1.04;100.00;98831.84;5153154;27;20086;-50
2022/01/09 09:36:15;;;;;;;18.70;10.00;;;;;;;-0.93;100.00;98832.44;5153237;27;20080;-49
2022/01/09 09:38:41;;;;;;;16.27;9.15;;;;;;;-1.08;100.00;98830.84;5152011;27;20047;-52
2022/01/09 09:41:07;;;;;;;16.40;8.35;;;;;;;-1.19;100.00;98838.28;5152967;27;20047;-49
2022/01/09 09:43:34;;;;;;;16.05;9.05;;;;;;;-1.25;100.00;98832.19;5153391;27;20149;-49
2022/01/09 09:46:01;;;;;;;14.32;8.00;;;;;;;-1.20;100.00;98831.31;5153044;27;20055;-49
2022/01/09 09:48:27;;;;;;;19.02;8.90;;;;;;;-1.15;100.00;98825.84;5153116;27;20095;-50
2022/01/09 09:50:53;;;;;;;18.77;8.60;;;;;;;-1.04;100.00;98821.06;5152971;27;20428;-49
2022/01/09 09:53:20;;;;;;;19.05;9.05;;;;;;;-0.86;100.00;98822.13;5153143;27;20382;-50
2022/01/09 09:55:48;;;;;;;16.65;8.85;;;;;;;-0.75;100.00;98828.88;5152897;27;20059;-52
2022/01/09 09:58:15;;;;;;;14.73;7.88;;;;;;;-0.69;100.00;98829.59;5152916;27;20047;-50
2022/01/09 10:00:43;;;;;;;14.93;7.85;;;;;;;-0.80;100.00;98835.19;5152710;27;20131;-50
2022/01/09 10:03:09;;;;;;;13.95;8.15;;;;;;;-0.93;100.00;98829.75;5152869;27;20509;-50
2022/01/09 10:05:37;;;;;;;13.32;7.53;;;;;;;-0.89;100.00;98823.50;5152749;27;20046;-54
2022/01/09 10:08:09;;;;;;;14.15;6.95;;;;;;;-1.02;100.00;98813.53;5152439;27;20563;-51
2022/01/09 10:10:37;;;;;;;16.08;7.43;;;;;;;-0.97;100.00;98813.41;5153103;27;20103;-50
2022/01/09 10:13:09;;;;;;;13.00;6.78;;;;;;;-1.04;100.00;98810.31;5152894;27;20133;-51
2022/01/09 10:15:46;;;;;;;16.73;7.82;;;;;;;-0.99;100.00;98816.41;5152916;27;20138;-51
2022/01/09 10:18:12;;;;;;;12.85;7.22;;;;;;;-1.00;100.00;98803.25;5151887;27;20103;-53
2022/01/09 10:20:38;;;;;;;14.48;6.90;;;;;;;-1.03;100.00;98814.63;5152794;27;20399;-50
2022/01/09 10:23:04;;;;;;;14.85;7.93;;;;;;;-1.10;100.00;98806.94;5152490;27;20082;-51
2022/01/09 10:25:32;;;;;;;12.13;6.80;;;;;;;-0.96;100.00;98815.81;5152645;27;20133;-51
2022/01/09 10:28:05;;;;;;;9.90;6.45;;;;;;;-1.00;100.00;98809.44;5152391;27;20046;-52
2022/01/09 10:30:33;;;;;;;13.30;7.03;;;;;;;-1.19;100.00;98798.75;5152537;27;20050;-52
2022/01/09 10:33:03;;;;;;;12.27;6.63;;;;;;;-1.02;100.00;98803.56;5152625;27;20046;-55
2022/01/09 10:35:30;;;;;;;12.07;6.68;;;;;;;-1.00;100.00;98800.56;5152258;27;20051;-53
2022/01/09 10:38:11;;;;;;;16.02;7.07;;;;;;;-1.01;100.00;98797.06;5152748;27;20054;-54
2022/01/09 10:40:40;;;;;;;12.65;7.03;;;;;;;-0.88;100.00;98800.06;5152158;27;20051;-53
2022/01/09 10:43:10;;;;;;;10.52;6.32;;;;;;;-0.77;100.00;98788.84;5152528;27;20050;-55
2022/01/09 10:45:40;;;;;;;14.30;7.53;;;;;;;-0.91;100.00;98792.59;5152189;27;20086;-51
2022/01/09 10:48:10;;;;;;;11.40;6.05;;;;;;;-0.95;100.00;98795.09;5152005;27;20076;-53
2022/01/09 10:50:40;;;;;;;11.45;6.28;;;;;;;-1.01;100.00;98791.69;5152114;27;20108;-52
2022/01/09 10:53:25;;;;;;;12.68;6.68;;;;;;;-1.07;100.00;98792.06;5151985;27;20062;-54
2022/01/09 10:56:03;;;;;;;13.45;6.88;;;;;;;-1.01;100.00;98780.13;5152014;27;20103;-52
2022/01/09 10:58:31;;;;;;;15.00;7.55;;;;;;;-0.99;100.00;98776.06;5151960;27;20047;-50
2022/01/09 11:01:09;;;;;;;12.20;6.55;;;;;;;-0.87;100.00;98778.22;5151846;27;20550;-52
2022/01/09 11:03:36;;;;;;;16.20;7.10;;;;;;;-0.79;100.00;98774.84;5151861;27;20055;-50
2022/01/09 11:06:03;;;;;;;13.02;6.88;;;;;;;-0.70;100.00;98769.56;5151957;27;20051;-53
2022/01/09 11:08:30;;;;;;;12.73;6.75;;;;;;;-0.67;100.00;98754.72;5151811;27;20178;-51
2022/01/09 11:10:58;;;;;;;16.88;6.32;;;;;;;-0.80;100.00;98730.22;5151975;27;20046;-52
2022/01/09 11:13:25;;;;;;;11.45;5.75;;;;;;;-0.93;100.00;98717.56;5151742;27;20078;-52
2022/01/09 11:18:39;;;;;;;12.73;5.90;;;;;;;-0.84;100.00;98728.41;5138089;27;20038;-50